Home > Products > Valid Products > MTR

000
SAUS44 KLZK 200954
MTRMWT
METAR KMWT 200953Z AUTO 00000KT 6SM BR CLR 08/07 A3004 RMK AO2
SLP171 T00830072





000
SAUS44 KLZK 200855
MTRMWT
METAR KMWT 200853Z AUTO 6SM BR CLR 08/08 A3005 RMK AO2 SLP173
T00830078 58004





000
SAUS44 KLZK 200843
MTRMWT
SPECI KMWT 200842Z AUTO 00000KT 5SM BR CLR 08/08 A3005 RMK AO2
T00830078





000
SAUS44 KLZK 200836
MTRMWT
SPECI KMWT 200835Z AUTO 00000KT 2 1/2SM BR CLR 08/08 A3005 RMK AO2
T00830078





000
SAUS44 KLZK 200754
MTRMWT
METAR KMWT 200753Z AUTO 00000KT 6SM BR CLR 08/08 A3006 RMK AO2
SLP177 T00830078





000
SAUS44 KLZK 200754
MTRMWT
METAR KMWT 200753Z AUTO 00000KT 6SM BR CLR 08/08 A3006 RMK AO2
SLP177 T00830078





000
SAUS44 KLZK 200655
MTRMWT
METAR KMWT 200653Z AUTO 00000KT 7SM CLR 08/08 A3007 RMK AO2 SLP180
T00830078





000
SAUS44 KLZK 200554
MTRMWT
METAR KMWT 200553Z AUTO 00000KT 6SM BR CLR 09/08 A3006 RMK AO2
SLP177 T00940083 10144 20094 402170056 58008





000
SAUS44 KLZK 200454
MTRMWT
METAR KMWT 200453Z AUTO 00000KT 7SM CLR 10/09 A3008 RMK AO2 SLP184
T01000089





000
SAUS44 KLZK 200356 COR
MTRMWT
METAR KMWT 200353Z AUTO 00000KT 7SM CLR 10/09 A3009 RMK AO2 SLP188
T01000094





000
SAUS44 KLZK 200254
MTRMWT
METAR KMWT 200253Z AUTO 00000KT 8SM CLR 11/10 A3008 RMK AO2 SLP188
T01110100 51001





000
SAUS44 KLZK 200154
MTRMWT
METAR KMWT 200153Z AUTO 00000KT 10SM CLR 12/11 A3008 RMK AO2 SLP189
T01170106





000
SAUS44 KLZK 200054
MTRMWT
METAR KMWT 200053Z AUTO 00000KT 10SM CLR 12/11 A3009 RMK AO2 SLP191
T01220111





000
SAUS44 KLZK 192354
MTRMWT
METAR KMWT 192353Z AUTO 00000KT 10SM CLR 14/12 A3008 RMK AO2 SLP188
T01440117 10217 20144 56007





000
SAUS44 KLZK 192354
MTRMWT
METAR KMWT 192353Z AUTO 00000KT 10SM CLR 14/12 A3008 RMK AO2 SLP188
T01440117 10217 20144 56007





000
SAUS44 KLZK 192254
MTRMWT
METAR KMWT 192253Z AUTO 00000KT 10SM CLR 17/11 A3008 RMK AO2 SLP187
T01720111





000
SAUS44 KLZK 192254
MTRMWT
METAR KMWT 192253Z AUTO 00000KT 10SM CLR 17/11 A3008 RMK AO2 SLP187
T01720111





000
SAUS44 KLZK 192154
MTRMWT
METAR KMWT 192153Z AUTO 00000KT 10SM CLR 21/09 A3009 RMK AO2 SLP187
T02060089





000
SAUS44 KLZK 192154
MTRMWT
METAR KMWT 192153Z AUTO 00000KT 10SM CLR 21/09 A3009 RMK AO2 SLP187
T02060089





000
SAUS44 KLZK 192057 COR
MTRMWT
METAR KMWT 192053Z AUTO VRB03KT 10SM CLR 21/09 A3010 RMK AO2 SLP191
T02110089 56027





000
SAUS44 KLZK 191954
MTRMWT
METAR KMWT 191953Z AUTO VRB04KT 10SM CLR 21/08 A3012 RMK AO2 SLP196
T02060083





000
SAUS44 KLZK 191854
MTRMWT
METAR KMWT 191853Z AUTO VRB03KT 10SM CLR 19/08 A3014 RMK AO2 SLP206
T01940078





000
SAUS44 KLZK 191754
MTRMWT
METAR KMWT 191753Z AUTO VRB04KT 10SM CLR 19/08 A3018 RMK AO2 SLP219
T01890078 10189 20056 58012





000
SAUS44 KLZK 191654
MTRMWT
METAR KMWT 191653Z AUTO VRB03KT 10SM CLR 18/10 A3020 RMK AO2 SLP225
T01830100





000
SAUS44 KLZK 191554
MTRMWT
METAR KMWT 191553Z AUTO 00000KT 10SM CLR 16/09 A3021 RMK AO2 SLP230
T01560094





000
SAUS44 KLZK 191456 COR
MTRMWT
METAR KMWT 191453Z AUTO 00000KT 10SM CLR 14/11 A3022 RMK AO2 SLP232
T01390111 51014





000
SAUS44 KLZK 191354
MTRMWT
METAR KMWT 191353Z AUTO 00000KT 10SM FEW003 09/08 A3021 RMK AO2
SLP232 T00890078





000
SAUS44 KLZK 191325
MTRMWT
SPECI KMWT 191324Z AUTO 00000KT 9SM SCT002 07/07 A3020 RMK AO2
T00720067





000
SAUS44 KLZK 191318
MTRMWT
SPECI KMWT 191317Z AUTO 00000KT 2SM BR BKN002 07/06 A3020 RMK AO2
T00670061





000
SAUS44 KLZK 191306
MTRMWT
SPECI KMWT 191304Z AUTO 00000KT 1/2SM FG VV002 06/06 A3019 RMK AO2
T00610056





000
SAUS44 KLZK 191254
MTRMWT
METAR KMWT 191253Z AUTO 00000KT 6SM BR BKN001 06/05 A3019 RMK AO2
SLP225 T00610050





000
SAUS44 KLZK 191252
MTRMWT
SPECI KMWT 191251Z AUTO 00000KT 5SM BR BKN001 06/05 A3019 RMK AO2





000
SAUS44 KLZK 191230
MTRMWT
SPECI KMWT 191229Z AUTO 00000KT 6SM BR FEW002 06/04 A3018 RMK AO2
T00560044





000
SAUS44 KLZK 191154
MTRMWT
METAR KMWT 191153Z AUTO 00000KT 6SM BR CLR 06/05 A3017 RMK AO2
SLP219 T00610050 10094 20061 51008





000
SAUS44 KLZK 191149
MTRMWT
SPECI KMWT 191148Z AUTO 00000KT 6SM BR CLR 06/06 A3017 RMK AO2





000
SAUS44 KLZK 191139
MTRMWT
SPECI KMWT 191138Z AUTO 00000KT 2SM BR CLR 06/06 A3017 RMK AO2 VIS 1
1/4V3 T00610056





000
SAUS44 KLZK 191054
MTRMWT
METAR KMWT 191053Z AUTO 00000KT 6SM BR CLR 07/06 A3017 RMK AO2
SLP217 T00670056





000
SAUS44 KLZK 191008 COR
MTRMWT
SPECI KMWT 191005Z AUTO 00000KT 6SM BR CLR 07/06 A3015 RMK AO2
T00720061





000
SAUS44 KLZK 190954
MTRMWT
METAR KMWT 190953Z AUTO 00000KT 2 1/2SM BR CLR 07/06 A3015 RMK AO2
SLP208 T00720061





000
SAUS44 KLZK 190954
MTRMWT
METAR KMWT 190953Z AUTO 00000KT 2 1/2SM BR CLR 07/06 A3015 RMK AO2
SLP208 T00720061





000
SAUS44 KLZK 190854
MTRMWT
METAR KMWT 190853Z AUTO 00000KT 4SM BR CLR 08/07 A3014 RMK AO2
SLP205 T00780067 58001





000
SAUS44 KLZK 190754
MTRMWT
METAR KMWT 190753Z AUTO 00000KT 6SM BR CLR 09/08 A3015 RMK AO2
SLP208 T00890078





000
SAUS44 KLZK 190654
MTRMWT
METAR KMWT 190653Z AUTO 00000KT 7SM CLR 09/08 A3015 RMK AO2 SLP208
T00890078





000
SAUS44 KLZK 190554
MTRMWT
METAR KMWT 190553Z AUTO 00000KT 7SM CLR 09/08 A3015 RMK AO2 SLP207
T00940083 10156 20094 402220094 50001





000
SAUS44 KLZK 190454
MTRMWT
METAR KMWT 190453Z AUTO 00000KT 7SM CLR 10/09 A3015 RMK AO2 SLP208
T01000089





000
SAUS44 KLZK 190454
MTRMWT
METAR KMWT 190453Z AUTO 00000KT 7SM CLR 10/09 A3015 RMK AO2 SLP208
T01000089





000
SAUS44 KLZK 190354
MTRMWT
METAR KMWT 190353Z AUTO 00000KT 6SM BR CLR 11/09 A3015 RMK AO2
SLP208 T01060094





000
SAUS44 KLZK 190354
MTRMWT
METAR KMWT 190353Z AUTO 00000KT 6SM BR CLR 11/09 A3015 RMK AO2
SLP208 T01060094





000
SAUS44 KLZK 190342
MTRMWT
SPECI KMWT 190341Z AUTO 00000KT 3SM BR CLR 11/10 A3015 RMK AO2
T01060100





000
SAUS44 KLZK 190342
MTRMWT
SPECI KMWT 190341Z AUTO 00000KT 3SM BR CLR 11/10 A3015 RMK AO2
T01060100





000
SAUS44 KLZK 190330
MTRMWT
SPECI KMWT 190329Z AUTO 00000KT 1 1/2SM BR CLR 11/10 A3014 RMK AO2
T01110100





000
SAUS44 KLZK 190330
MTRMWT
SPECI KMWT 190329Z AUTO 00000KT 1 1/2SM BR CLR 11/10 A3014 RMK AO2
T01110100





000
SAUS44 KLZK 190254
MTRMWT
METAR KMWT 190253Z AUTO 00000KT 7SM CLR 12/11 A3014 RMK AO2 SLP206
T01170106 53014





000
SAUS44 KLZK 190157 COR
MTRMWT
METAR KMWT 190153Z AUTO 00000KT 10SM CLR 12/11 A3012 RMK AO2 SLP201
T01220111





000
SAUS44 KLZK 190054
MTRMWT
METAR KMWT 190053Z AUTO 00000KT 10SM CLR 14/12 A3011 RMK AO2 SLP198
T01390117





000
SAUS44 KLZK 182354
MTRMWT
METAR KMWT 182353Z AUTO 00000KT 10SM CLR 16/12 A3010 RMK AO2 SLP192
T01560122 10222 20156 53004





000
SAUS44 KLZK 182254
MTRMWT
METAR KMWT 182253Z AUTO 00000KT 10SM CLR 19/12 A3009 RMK AO2 SLP188
T01890122





000
SAUS44 KLZK 182154
MTRMWT
METAR KMWT 182153Z AUTO VRB03KT 10SM CLR 22/11 A3009 RMK AO2 SLP184
T02220106





000
SAUS44 KLZK 182154
MTRMWT
METAR KMWT 182153Z AUTO VRB03KT 10SM CLR 22/11 A3009 RMK AO2 SLP184
T02220106





000
SAUS44 KLZK 182054
MTRMWT
METAR KMWT 182053Z AUTO 29003KT 10SM CLR 22/10 A3009 RMK AO2 SLP185
T02170100 56012





000
SAUS44 KLZK 181954
MTRMWT
METAR KMWT 181953Z AUTO VRB04KT 10SM CLR 21/09 A3009 RMK AO2 SLP185
T02110094





000
SAUS44 KLZK 181954
MTRMWT
METAR KMWT 181953Z AUTO VRB04KT 10SM CLR 21/09 A3009 RMK AO2 SLP185
T02110094





000
SAUS44 KLZK 181854
MTRMWT
METAR KMWT 181853Z AUTO 00000KT 10SM CLR 19/09 A3009 RMK AO2 SLP188
T01940094





000
SAUS44 KLZK 181754
MTRMWT
METAR KMWT 181753Z AUTO VRB03KT 10SM CLR 19/12 A3012 RMK AO2 SLP197
T01940117 10194 20106 58002





000
SAUS44 KLZK 181654
MTRMWT
METAR KMWT 181653Z AUTO 00000KT 10SM CLR 18/11 A3013 RMK AO2 SLP201
T01830111





000
SAUS44 KLZK 181654
MTRMWT
METAR KMWT 181653Z AUTO 00000KT 10SM CLR 18/11 A3013 RMK AO2 SLP201
T01830111





000
SAUS44 KLZK 181554
MTRMWT
METAR KMWT 181553Z AUTO 00000KT 10SM CLR 17/12 A3013 RMK AO2 SLP201
T01670117





000
SAUS44 KLZK 181554
MTRMWT
METAR KMWT 181553Z AUTO 00000KT 10SM CLR 17/12 A3013 RMK AO2 SLP201
T01670117





000
SAUS44 KLZK 181457 COR
MTRMWT
METAR KMWT 181453Z AUTO 00000KT 10SM CLR 16/12 A3013 RMK AO2 SLP200
T01610117 53017





000
SAUS44 KLZK 181457 COR
MTRMWT
METAR KMWT 181453Z AUTO 00000KT 10SM CLR 16/12 A3013 RMK AO2 SLP200
T01610117 53017





000
SAUS44 KLZK 181354
MTRMWT
METAR KMWT 181353Z AUTO 00000KT 10SM CLR 13/12 A3011 RMK AO2 SLP192
T01330122





000
SAUS44 KLZK 181254
MTRMWT
METAR KMWT 181253Z AUTO 00000KT 7SM CLR 11/10 A3008 RMK AO2 SLP185
T01110100





000
SAUS44 KLZK 181154
MTRMWT
METAR KMWT 181153Z AUTO 00000KT 6SM BR CLR 11/10 A3008 RMK AO2
SLP183 T01060100 10139 20106 53017





000
SAUS44 KLZK 181154
MTRMWT
METAR KMWT 181153Z AUTO 00000KT 6SM BR CLR 11/10 A3008 RMK AO2
SLP183 T01060100 10139 20106 53017





000
SAUS44 KLZK 181054
MTRMWT
METAR KMWT 181053Z AUTO 00000KT 4SM BR CLR 12/11 A3006 RMK AO2
SLP174 T01170106





000
SAUS44 KLZK 181054
MTRMWT
METAR KMWT 181053Z AUTO 00000KT 4SM BR CLR 12/11 A3006 RMK AO2
SLP174 T01170106





000
SAUS44 KLZK 180954
MTRMWT
METAR KMWT 180953Z AUTO 00000KT 8SM CLR 12/12 A3004 RMK AO2 SLP166
T01220117





000
SAUS44 KLZK 180954
MTRMWT
METAR KMWT 180953Z AUTO 00000KT 8SM CLR 12/12 A3004 RMK AO2 SLP166
T01220117





000
SAUS44 KLZK 180857 COR
MTRMWT
METAR KMWT 180853Z AUTO 00000KT 7SM CLR 13/12 A3002 RMK AO2 SLP160
T01280117 51009





000
SAUS44 KLZK 180754
MTRMWT
METAR KMWT 180753Z AUTO 00000KT 8SM CLR 13/12 A3002 RMK AO2 SLP158
T01280122





000
SAUS44 KLZK 180754
MTRMWT
METAR KMWT 180753Z AUTO 00000KT 8SM CLR 13/12 A3002 RMK AO2 SLP158
T01280122





000
SAUS44 KLZK 180654
MTRMWT
METAR KMWT 180653Z AUTO 00000KT 6SM BR CLR 13/12 A3001 RMK AO2
SLP155 T01280117





000
SAUS44 KLZK 180554
MTRMWT
METAR KMWT 180553Z AUTO 00000KT 5SM BR CLR 14/13 A3000 RMK AO2
SLP151 T01390128 10194 20139 402830117 51010





000
SAUS44 KLZK 180454
MTRMWT
METAR KMWT 180453Z AUTO 00000KT 5SM BR CLR 15/14 A2999 RMK AO2
SLP149 T01500139





000
SAUS44 KLZK 180454
MTRMWT
METAR KMWT 180453Z AUTO 00000KT 5SM BR CLR 15/14 A2999 RMK AO2
SLP149 T01500139





000
SAUS44 KLZK 180354
MTRMWT
METAR KMWT 180353Z AUTO 00000KT 5SM BR CLR 16/14 A2998 RMK AO2
SLP145 T01560144





000
SAUS44 KLZK 180254
MTRMWT
METAR KMWT 180253Z AUTO 00000KT 8SM CLR 16/15 A2997 RMK AO2 SLP141
T01610150 51014





000
SAUS44 KLZK 180154
MTRMWT
METAR KMWT 180153Z AUTO 28004KT 7SM CLR 17/16 A2995 RMK AO2 SLP139
T01720161





000
SAUS44 KLZK 180054
MTRMWT
METAR KMWT 180053Z AUTO 27003KT 10SM CLR 18/17 A2994 RMK AO2 SLP136
T01780167





000
SAUS44 KLZK 172354
MTRMWT
METAR KMWT 172353Z AUTO 00000KT 10SM CLR 19/17 A2992 RMK AO2 SLP130
T01940167 10283 20194 51006





000
SAUS44 KLZK 172354
MTRMWT
METAR KMWT 172353Z AUTO 00000KT 10SM CLR 19/17 A2992 RMK AO2 SLP130
T01940167 10283 20194 51006





000
SAUS44 KLZK 172254
MTRMWT
METAR KMWT 172253Z AUTO 00000KT 10SM CLR 23/16 A2992 RMK AO2 SLP125
T02280161





000
SAUS44 KLZK 172254
MTRMWT
METAR KMWT 172253Z AUTO 00000KT 10SM CLR 23/16 A2992 RMK AO2 SLP125
T02280161





000
SAUS44 KLZK 172154
MTRMWT
METAR KMWT 172153Z AUTO VRB04KT 10SM CLR 28/14 A2991 RMK AO2 SLP122
T02780139





000
SAUS44 KLZK 172154
MTRMWT
METAR KMWT 172153Z AUTO VRB04KT 10SM CLR 28/14 A2991 RMK AO2 SLP122
T02780139





000
SAUS44 KLZK 172054
MTRMWT
METAR KMWT 172053Z AUTO 29004KT 10SM CLR 27/16 A2990 RMK AO2 SLP118
T02720156 55006





000
SAUS44 KLZK 171954
MTRMWT
METAR KMWT 171953Z AUTO 00000KT 10SM CLR 27/13 A2990 RMK AO2 SLP116
T02720133





000
SAUS44 KLZK 171854
MTRMWT
METAR KMWT 171853Z AUTO 00000KT CLR 27/13 A2990 RMK AO2 SLP116
T02720128 $





000
SAUS44 KLZK 171754
MTRMWT
METAR KMWT 171753Z AUTO VRB04KT CLR 26/13 A2992 RMK AO2 SLP124
T02610133 10267 20117 51005 $





000
SAUS44 KLZK 171654
MTRMWT
METAR KMWT 171653Z AUTO 00000KT 10SM CLR 25/14 A2992 RMK AO2 SLP125
T02500139





000
SAUS44 KLZK 171554
MTRMWT
METAR KMWT 171553Z AUTO VRB03KT 10SM CLR 23/13 A2992 RMK AO2 SLP125
T02280133





000
SAUS44 KLZK 171554
MTRMWT
METAR KMWT 171553Z AUTO VRB03KT 10SM CLR 23/13 A2992 RMK AO2 SLP125
T02280133





000
SAUS44 KLZK 171454
MTRMWT
METAR KMWT 171453Z AUTO 00000KT 10SM CLR 20/14 A2991 RMK AO2 SLP124
T02000144 51018





000
SAUS44 KLZK 171354
MTRMWT
METAR KMWT 171353Z AUTO 00000KT 10SM CLR 16/14 A2990 RMK AO2 SLP121
T01560139





000
SAUS44 KLZK 171254
MTRMWT
METAR KMWT 171253Z AUTO 00000KT 10SM CLR 12/11 A2988 RMK AO2 SLP115
T01170106 $





000
SAUS44 KLZK 171154
MTRMWT
METAR KMWT 171153Z AUTO 00000KT 10SM CLR 12/11 A2985 RMK AO2 SLP107
T01220106 10189 20122 53009 $





000
SAUS44 KLZK 171154
MTRMWT
METAR KMWT 171153Z AUTO 00000KT 10SM CLR 12/11 A2985 RMK AO2 SLP107
T01220106 10189 20122 53009 $





000
SAUS44 KLZK 171054
MTRMWT
METAR KMWT 171053Z AUTO 00000KT 10SM CLR 13/11 A2984 RMK AO2 SLP098
T01280106 $





000
SAUS44 KLZK 171054
MTRMWT
METAR KMWT 171053Z AUTO 00000KT 10SM CLR 13/11 A2984 RMK AO2 SLP098
T01280106 $





    US Dept of Commerce
    National Oceanic and Atmospheric Administration
    National Weather Service
    1325 East West Highway
    Silver Spring, MD 20910
    Page Author: NWS Internet Services Team
Disclaimer
Information Quality
Credits
Glossary
Privacy Policy
Freedom of Information Act (FOIA)
About Us
Career Opportunities